Skip to main content

NOAA/GLERL Met Station at Chicago, IL

Previous 3 Hours (2 minute increments)
See also Previous 5 Days (top of hour)
Jump down to Data
Switch to [English][Metric]
Zoom: Click and drag, Pan: shift-click and drag, Unzoom: double-click, Unzoom All




See also 1-day windrose plot


NOAA/GLERL Met Station at Chicago, IL

Previous 3 Hours (2 minute increments)
See also Previous 5 Days (top of hour only)
Jump up to Graphs
Switch to [English][Metric]
                  Wind  Wind  Wind   Air   Dew   Rel
                   Spd   Gst   Dir  Temp    Pt   Hum
YYYY-MM-DD   CDT   kts   kts   deg     F     F     %
2018-07-22 15:20  15.7  17.7     1  71.1  69.0  93.0
2018-07-22 15:18  16.7  18.1     2  71.1  68.9  92.7
2018-07-22 15:16  16.9  18.1     3  71.1  69.0  93.0
2018-07-22 15:14  17.9  19.8     3  70.9  68.9  93.2
2018-07-22 15:12  15.7  17.9     5  70.9  69.0  93.7
2018-07-22 15:10  15.9  17.1     5  71.1  69.2  93.7
2018-07-22 15:08  16.1  17.9     3  70.9  68.9  93.4
2018-07-22 15:06  17.5  18.9     4  71.1  69.1  93.3
2018-07-22 15:04  18.5  20.2     4  70.9  69.0  93.6
2018-07-22 15:02  18.1  19.4     2  70.9  69.0  93.7
2018-07-22 15:00  18.1  19.8     1  70.9  69.0  93.8
2018-07-22 14:58  18.7  20.0     0  70.9  69.0  93.7
2018-07-22 14:56  18.1  21.0   359  70.9  68.9  93.5
2018-07-22 14:54  18.5  20.4     0  70.9  69.1  93.9
2018-07-22 14:52  17.9  20.4     1  70.9  69.1  93.9
2018-07-22 14:50  18.3  20.2     2  70.9  69.1  94.0
2018-07-22 14:48  18.3  19.4     2  70.9  69.2  94.2
2018-07-22 14:46  17.1  18.9     1  70.9  69.1  94.1
2018-07-22 14:44  17.3  18.9     2  70.9  69.1  94.0
2018-07-22 14:42  17.7  19.8     0  70.9  69.1  94.0
2018-07-22 14:40  17.9  19.6     3  70.9  69.1  94.0
2018-07-22 14:38  18.7  20.2     3  70.9  69.1  94.1
2018-07-22 14:36  18.7  19.6     3  70.9  69.1  94.1
2018-07-22 14:34  18.9  20.6     5  70.9  69.2  94.2
2018-07-22 14:32  18.7  19.8     7  70.9  69.3  94.6
2018-07-22 14:30  16.3  18.7     5  71.1  69.5  94.7
2018-07-22 14:28  18.1  19.1     6  71.1  69.4  94.5
2018-07-22 14:26  18.9  20.0     6  71.2  69.5  94.1
2018-07-22 14:24  18.1  20.4     7  71.2  69.5  94.0
2018-07-22 14:22  17.7  19.1     5  71.2  69.5  94.0
2018-07-22 14:20  16.9  18.1     7  71.2  69.5  94.1
2018-07-22 14:18  16.7  18.9     7  71.2  69.5  94.0
2018-07-22 14:16  17.3  18.7     8  71.2  69.4  93.9
2018-07-22 14:14  18.7  20.8     9  71.2  69.4  93.9
2018-07-22 14:12  18.1  20.6     8  71.2  69.5  94.2
2018-07-22 14:10  17.3  19.1     8  71.2  69.5  94.3
2018-07-22 14:08  16.9  18.7     8  71.2  69.6  94.6
2018-07-22 14:06  15.9  18.3     7  71.2  69.6  94.6
2018-07-22 14:04  16.7  18.5     7  71.2  69.6  94.4
2018-07-22 14:02  16.9  18.3     9  71.2  69.5  94.3
2018-07-22 14:00  16.7  18.1    10  71.4  69.7  94.2
2018-07-22 13:58  17.1  18.9    13  71.2  69.5  94.3
2018-07-22 13:56  17.1  18.5    10  71.2  69.6  94.6
2018-07-22 13:54  16.3  18.1    10  71.2  69.7  94.8
2018-07-22 13:52  16.9  18.7    11  71.1  69.6  95.0
2018-07-22 13:50  17.7  18.9    11  71.1  69.7  95.5
2018-07-22 13:48  16.1  17.9     6  71.1  69.9  96.0
2018-07-22 13:46  15.9  17.9     4  71.1  69.9  96.1
2018-07-22 13:44  15.0  16.5     5  71.1  69.9  95.9
2018-07-22 13:42  15.6  16.7     4  71.1  69.8  95.8
2018-07-22 13:40  15.0  15.9     5  71.1  69.8  95.7
2018-07-22 13:38  15.2  16.5     5  71.1  69.8  95.7
2018-07-22 13:36  15.4  16.7     5  71.1  69.9  95.9
2018-07-22 13:34  15.9  17.5     5  71.1  69.9  96.1
2018-07-22 13:32  15.7  16.9     4  71.1  70.0  96.3
2018-07-22 13:30  16.5  17.7     3  70.9  69.9  96.5
2018-07-22 13:28  15.6  17.5     2  70.9  69.8  96.4
2018-07-22 13:26  15.0  16.3     2  70.9  69.8  96.2
2018-07-22 13:24  15.0  16.1     1  70.9  69.7  96.1
2018-07-22 13:22  15.4  16.3   359  70.9  69.7  96.0
2018-07-22 13:20  15.6  16.9     2  70.9  69.7  95.9
2018-07-22 13:18  15.6  16.7     5  70.9  69.6  95.8
2018-07-22 13:16  16.1  16.9     4  70.9  69.6  95.7
2018-07-22 13:14  16.5  17.9     6  70.9  69.6  95.8
2018-07-22 13:12  16.7  17.9     7  70.9  69.7  95.9
2018-07-22 13:10  15.6  16.9     5  70.9  69.7  95.9
2018-07-22 13:08  15.4  16.9     5  70.9  69.6  95.6
2018-07-22 13:06  16.5  17.7     4  70.9  69.6  95.5
2018-07-22 13:04  15.9  17.3     4  70.9  69.5  95.4
2018-07-22 13:02  16.3  17.7     6  71.1  69.6  95.2
2018-07-22 13:00  16.1  17.3     7  71.1  69.6  95.2
2018-07-22 12:58  15.4  16.3     7  71.1  69.6  95.1
2018-07-22 12:56  15.7  17.1    10  71.1  69.7  95.3
2018-07-22 12:54  15.7  17.1    10  71.1  69.7  95.4
2018-07-22 12:52  15.2  16.3     7  71.1  69.6  95.0
2018-07-22 12:50  15.2  15.9     6  71.2  69.6  94.5
2018-07-22 12:48  15.9  17.3     8  71.2  69.5  94.3
2018-07-22 12:46  16.5  18.3     8  71.2  69.6  94.5
2018-07-22 12:44  16.3  18.3     7  71.2  69.8  95.2
2018-07-22 12:42  15.2  17.7     6  71.2  69.9  95.4
2018-07-22 12:40  14.8  16.3     9  71.2  69.9  95.3
2018-07-22 12:38  15.9  18.1    12  71.2  69.9  95.5
2018-07-22 12:36  15.7  17.7    12  71.1  69.8  95.7
2018-07-22 12:34  16.1  17.7    14  71.1  69.8  95.6
2018-07-22 12:32  16.3  18.3    16  71.1  69.6  95.1
2018-07-22 12:30  14.8  16.1    14  71.2  69.6  94.5
2018-07-22 12:28  16.7  17.9    17  71.2  69.6  94.4
2018-07-22 12:26  15.4  17.7    16  71.2  69.6  94.6
2018-07-22 12:24  15.9  17.5    17  71.4  69.8  94.6
2018-07-22 12:22  16.1  16.9    16  71.2  69.8  95.0
2018-07-22 12:20  15.0  16.7    16  71.2  69.9  95.3